Time;durP1;ratioP1;P1;durP2;ratioP2;P2;SDS_P1;SDS_P2;PMS_P1;PMS_P2;Temp;Humidity;BMP_temperature;BMP_pressure;BME280_temperature;BME280_humidity;BME280_pressure;Samples;Min_cycle;Max_cycle;Signal;HPM_P1;HPM_P2
2023/10/16 00:01:31;;;;;;;2.37;2.00;;;;;;;4.72;71.15;99598.09;5110833;27;45270;-82
2023/10/16 00:04:00;;;;;;;3.07;2.03;;;;;;;4.68;71.01;99592.97;5126745;27;42416;-82
2023/10/16 00:06:29;;;;;;;2.07;1.90;;;;;;;4.66;71.87;99589.50;5128131;27;39971;-82
2023/10/16 00:09:10;;;;;;;2.53;2.10;;;;;;;4.64;71.71;99586.06;5127104;27;41693;-80
2023/10/16 00:11:38;;;;;;;3.00;2.63;;;;;;;4.63;72.32;99584.34;5126911;27;42952;-82
2023/10/16 00:14:19;;;;;;;2.37;2.17;;;;;;;4.57;72.09;99573.16;5115623;27;41129;-81
2023/10/16 00:16:50;;;;;;;3.03;1.87;;;;;;;4.36;72.02;99542.25;5130446;27;39900;-83
2023/10/16 00:19:18;;;;;;;1.80;1.70;;;;;;;4.55;72.10;99581.06;5134405;27;41898;-80
2023/10/16 00:21:47;;;;;;;2.90;2.63;;;;;;;4.55;73.24;99574.97;5114938;27;42589;-80
2023/10/16 00:24:15;;;;;;;4.07;2.67;;;;;;;4.54;74.68;99566.25;5131926;27;42277;-83
2023/10/16 00:26:48;;;;;;;4.30;3.20;;;;;;;4.26;77.45;99515.41;5129549;27;40263;-82
2023/10/16 00:29:18;;;;;;;3.17;2.87;;;;;;;4.40;77.93;99539.50;5128937;27;41588;-82
2023/10/16 00:31:51;;;;;;;4.20;3.43;;;;;;;4.45;78.65;99553.34;5111877;27;42957;-81
2023/10/16 00:34:20;;;;;;;3.80;3.27;;;;;;;4.49;77.68;99567.25;5111319;27;42030;-83
2023/10/16 00:36:51;;;;;;;3.53;2.90;;;;;;;4.47;76.91;99575.16;5129070;27;40150;-81
2023/10/16 00:39:20;;;;;;;3.57;2.83;;;;;;;4.41;76.10;99572.69;5111597;27;41903;-80
2023/10/16 00:41:50;;;;;;;3.17;2.77;;;;;;;4.44;75.72;99585.75;5126081;27;42831;-82
2023/10/16 00:44:18;;;;;;;3.47;2.50;;;;;;;4.31;75.26;99571.22;5109166;27;42607;-84
2023/10/16 00:46:48;;;;;;;3.50;2.80;;;;;;;4.40;75.05;99589.34;5112816;27;38541;-82
2023/10/16 00:49:18;;;;;;;3.07;2.23;;;;;;;4.37;74.59;99584.16;5113794;27;41413;-82
2023/10/16 00:51:46;;;;;;;3.60;2.40;;;;;;;4.29;74.20;99580.88;5114010;27;42875;-82
2023/10/16 00:54:26;;;;;;;1.80;1.70;;;;;;;4.26;74.07;99586.19;5113592;27;42413;-83
2023/10/16 00:56:54;;;;;;;3.07;2.60;;;;;;;4.23;73.96;99589.75;5131349;27;38958;-80
2023/10/16 00:59:23;;;;;;;2.83;2.30;;;;;;;4.13;74.06;99571.69;5131009;27;42082;-84
2023/10/16 01:02:04;;;;;;;3.50;2.63;;;;;;;4.19;74.09;99582.03;5131362;27;42825;-84
2023/10/16 01:04:32;;;;;;;2.27;2.03;;;;;;;4.18;73.97;99580.31;5113356;27;41539;-80
2023/10/16 01:07:01;;;;;;;2.23;2.00;;;;;;;4.13;73.82;99571.69;5132437;27;40910;-81
2023/10/16 01:09:34;;;;;;;4.33;2.83;;;;;;;4.05;73.47;99565.78;5130951;27;43155;-83
2023/10/16 01:12:06;;;;;;;2.73;2.30;;;;;;;3.86;73.45;99542.63;5131180;27;42447;-82
2023/10/16 01:14:35;;;;;;;2.17;1.80;;;;;;;4.02;73.37;99573.72;5114917;27;41164;-82
2023/10/16 01:17:03;;;;;;;2.43;1.87;;;;;;;3.95;73.40;99563.41;5115239;27;38792;-83
2023/10/16 01:19:32;;;;;;;2.40;2.10;;;;;;;4.01;73.37;99577.22;5133086;27;42799;-80
2023/10/16 01:22:00;;;;;;;2.17;1.97;;;;;;;3.98;72.96;99579.00;5130863;27;41993;-80
2023/10/16 01:28:23;;;;;;;2.57;1.93;;;;;;;3.88;72.90;99581.91;5131710;27;38914;-83
2023/10/16 01:30:52;;;;;;;1.83;1.67;;;;;;;3.85;73.17;99582.81;5134081;27;40634;-80
2023/10/16 01:33:19;;;;;;;2.37;1.83;;;;;;;3.83;72.95;99579.38;5115871;27;42108;-82
2023/10/16 01:35:47;;;;;;;2.93;1.93;;;;;;;3.81;72.86;99575.97;5116622;27;42240;-80
2023/10/16 01:38:18;;;;;;;4.20;2.20;;;;;;;3.66;72.65;99557.97;5135237;27;40759;-82
2023/10/16 01:41:03;;;;;;;2.90;2.23;;;;;;;3.69;72.89;99557.91;5117292;27;40824;-80
2023/10/16 01:43:33;;;;;;;1.90;1.70;;;;;;;3.64;72.87;99556.28;5117424;27;41922;-80
2023/10/16 01:46:03;;;;;;;2.37;1.93;;;;;;;3.73;73.05;99569.16;5133953;27;42177;-83
2023/10/16 01:48:31;;;;;;;2.17;1.97;;;;;;;3.63;72.81;99550.19;5117512;27;41808;-83
2023/10/16 01:51:00;;;;;;;2.30;2.10;;;;;;;3.71;73.01;99571.81;5116759;27;41458;-83
2023/10/16 01:53:32;;;;;;;2.30;2.10;;;;;;;3.68;72.81;99568.41;5116854;27;41828;-80
2023/10/16 07:19:25;;;;;;;10.80;7.03;;;;;;;2.87;100.00;99563.19;5149804;27;21059;-83
2023/10/16 07:21:54;;;;;;;12.73;8.53;;;;;;;3.50;100.00;99548.75;5147241;27;39617;-75
2023/10/16 07:24:22;;;;;;;10.93;7.57;;;;;;;4.09;100.00;99554.28;5130940;27;41604;-75
2023/10/16 07:26:50;;;;;;;9.97;6.57;;;;;;;4.65;99.09;99566.81;5149373;27;42679;-80
2023/10/16 07:29:21;;;;;;;12.97;7.80;;;;;;;5.00;95.79;99549.19;5148398;27;41772;-82
2023/10/16 07:31:53;;;;;;;12.60;7.87;;;;;;;5.39;92.70;99571.66;5129938;27;38891;-78
2023/10/16 07:34:23;;;;;;;11.73;8.00;;;;;;;5.57;90.47;99564.13;5147501;27;40350;-78
2023/10/16 07:36:55;;;;;;;13.70;8.33;;;;;;;5.86;88.15;99560.56;5129612;27;41893;-79
2023/10/16 07:39:22;;;;;;;10.87;7.03;;;;;;;6.12;86.67;99553.59;5130601;27;41327;-80
2023/10/16 07:41:52;;;;;;;11.67;6.93;;;;;;;6.18;84.88;99530.66;5148505;27;39926;-78
2023/10/16 07:44:19;;;;;;;12.10;7.83;;;;;;;6.53;83.54;99558.38;5148619;27;42818;-81
2023/10/16 07:46:50;;;;;;;11.57;7.37;;;;;;;6.72;81.92;99570.81;5147448;27;43018;-79
2023/10/16 07:49:18;;;;;;;11.90;7.13;;;;;;;6.49;81.35;99504.97;5144515;27;42206;-78
2023/10/16 07:51:48;;;;;;;11.00;7.20;;;;;;;6.99;80.79;99568.09;5148289;27;40083;-79
2023/10/16 07:54:15;;;;;;;9.53;6.87;;;;;;;7.21;79.33;99574.28;5129626;27;41997;-77
2023/10/16 07:56:44;;;;;;;11.13;7.97;;;;;;;7.40;78.64;99574.47;5128908;27;42190;-76
2023/10/16 07:59:18;;;;;;;9.77;7.40;;;;;;;7.57;77.23;99580.78;5147010;27;42251;-80
2023/10/16 08:01:48;;;;;;;12.43;7.57;;;;;;;7.62;76.08;99562.16;5144327;27;40389;-87
2023/10/16 08:04:35;;;;;;;11.23;7.87;;;;;;;7.68;75.65;99548.72;5147281;27;41467;-80
2023/10/16 08:07:09;;;;;;;8.47;6.73;;;;;;;7.97;74.74;99581.00;5144723;27;43910;-82
2023/10/16 08:12:35;;;;;;;8.80;6.30;;;;;;;8.20;72.48;99584.41;5147739;27;39122;-78
2023/10/16 08:15:09;;;;;;;9.53;6.90;;;;;;;8.37;71.59;99581.13;5146769;27;42703;-81
2023/10/16 08:17:37;;;;;;;8.57;6.37;;;;;;;8.62;71.84;99591.50;5151763;27;42897;-78
2023/10/16 08:20:08;;;;;;;10.83;6.70;;;;;;;8.96;70.18;99599.66;5149606;27;42312;-84
2023/10/16 08:22:37;;;;;;;10.60;6.37;;;;;;;9.18;68.92;99596.06;5147268;27;39023;-78
2023/10/16 08:25:07;;;;;;;8.97;6.40;;;;;;;9.35;68.36;99604.09;5130567;27;41163;-79
2023/10/16 08:27:47;;;;;;;7.37;5.80;;;;;;;9.68;68.48;99597.25;5130005;27;41967;-79
2023/10/16 08:33:07;;;;;;;6.43;5.27;;;;;;;10.99;64.88;99604.00;5113904;27;39817;-80
2023/10/16 08:35:38;;;;;;;6.10;4.27;;;;;;;11.67;62.08;99610.03;5130917;27;42867;-84
2023/10/16 08:38:13;;;;;;;8.47;5.37;;;;;;;12.16;60.75;99621.44;5131973;27;43861;-83
2023/10/16 08:40:44;;;;;;;5.77;5.13;;;;;;;12.94;58.34;99627.53;5115850;27;41084;-80
2023/10/16 08:43:17;;;;;;;6.83;5.47;;;;;;;13.59;56.66;99623.53;5129508;27;41263;-76
2023/10/16 08:45:48;;;;;;;5.67;4.40;;;;;;;14.89;53.41;99637.22;5130415;27;42977;-75
2023/10/16 08:48:18;;;;;;;4.70;4.20;;;;;;;16.17;50.80;99652.25;5114594;27;42856;-77
2023/10/16 08:50:57;;;;;;;4.33;3.93;;;;;;;17.57;47.20;99660.31;5114923;27;42577;-76
2023/10/16 08:53:32;;;;;;;4.30;3.90;;;;;;;19.24;43.26;99688.69;5130792;27;39978;-75
2023/10/16 08:56:03;;;;;;;5.27;3.93;;;;;;;20.61;41.16;99698.13;5114961;27;40975;-76
2023/10/16 08:58:38;;;;;;;6.80;4.53;;;;;;;20.81;39.84;99694.47;5114025;27;42832;-75
2023/10/16 09:01:08;;;;;;;5.60;4.13;;;;;;;20.90;39.18;99703.53;5131607;27;41388;-75
2023/10/16 09:03:46;;;;;;;5.57;4.60;;;;;;;21.13;39.10;99695.06;5131256;27;39554;-75
2023/10/16 09:06:21;;;;;;;4.20;3.80;;;;;;;21.97;37.26;99699.75;5131733;27;40542;-75
2023/10/16 09:08:50;;;;;;;4.60;4.20;;;;;;;22.85;35.30;99710.00;5131118;27;43400;-75
2023/10/16 09:11:18;;;;;;;4.10;3.80;;;;;;;23.56;34.85;99691.88;5131506;27;43138;-75
2023/10/16 09:13:50;;;;;;;5.03;4.13;;;;;;;23.32;35.37;99690.81;5115052;27;40002;-75
2023/10/16 09:16:21;;;;;;;4.27;3.87;;;;;;;22.11;37.00;99675.03;5130797;27;41556;-75
2023/10/16 09:18:48;;;;;;;4.10;3.70;;;;;;;20.90;38.30;99661.31;5113920;27;42014;-75
2023/10/16 09:21:22;;;;;;;3.13;2.83;;;;;;;20.02;39.14;99663.97;5133742;27;42186;-75
2023/10/16 09:23:58;;;;;;;3.70;3.30;;;;;;;19.23;39.24;99660.13;5129857;27;40167;-75
2023/10/16 09:26:28;;;;;;;3.97;3.33;;;;;;;18.58;41.25;99643.22;5128366;27;42883;-75
2023/10/16 09:29:04;;;;;;;3.93;3.43;;;;;;;18.10;42.04;99645.38;5113443;27;41038;-75
2023/10/16 09:31:31;;;;;;;4.00;3.57;;;;;;;17.68;42.20;99646.97;5131297;27;41497;-74
2023/10/16 09:33:59;;;;;;;4.40;3.17;;;;;;;17.34;42.59;99638.03;5130886;27;40005;-74
2023/10/16 09:36:29;;;;;;;5.63;3.90;;;;;;;17.03;42.58;99649.41;5131201;27;41725;-75
2023/10/16 09:39:16;;;;;;;4.27;3.03;;;;;;;16.99;43.50;99647.94;5130234;27;43162;-75
2023/10/16 09:41:46;;;;;;;13.37;8.97;;;;;;;17.13;43.40;99645.06;5128340;27;42236;-75
2023/10/16 09:44:23;;;;;;;6.93;5.23;;;;;;;17.10;43.19;99623.88;5131042;27;38911;-74
2023/10/16 09:46:54;;;;;;;4.07;3.63;;;;;;;17.12;43.32;99632.63;5129501;27;42176;-78
2023/10/16 09:49:23;;;;;;;6.00;3.70;;;;;;;17.27;43.48;99639.50;5114227;27;42072;-78
2023/10/16 09:51:57;;;;;;;4.53;4.10;;;;;;;17.28;43.33;99638.53;5114337;27;41544;-78
2023/10/16 09:54:30;;;;;;;4.70;3.73;;;;;;;17.65;42.62;99639.19;5114086;27;38914;-79
2023/10/16 09:56:59;;;;;;;5.50;4.17;;;;;;;19.01;40.22;99661.09;5128464;27;41792;-76
2023/10/16 09:59:32;;;;;;;4.60;3.97;;;;;;;21.25;37.35;99685.03;5114293;27;42934;-81
2023/10/16 10:02:08;;;;;;;5.33;3.90;;;;;;;22.92;34.31;99693.00;5114323;27;42276;-79
2023/10/16 10:04:38;;;;;;;4.33;3.70;;;;;;;23.39;33.83;99694.56;5128588;27;39842;-81
2023/10/16 10:07:19;;;;;;;6.10;4.03;;;;;;;24.90;32.32;99701.13;5114065;27;41047;-81
2023/10/16 10:09:53;;;;;;;4.70;4.17;;;;;;;25.10;31.02;99693.56;5113584;27;43214;-80
2023/10/16 10:12:33;;;;;;;4.10;3.80;;;;;;;24.57;31.35;99703.75;5131387;27;42574;-77
2023/10/16 10:15:20;;;;;;;5.10;4.67;;;;;;;23.29;32.49;99697.38;5114770;27;40137;-75
2023/10/16 10:17:52;;;;;;;4.73;4.33;;;;;;;23.81;31.67;99694.75;5131188;27;40615;-76
2023/10/16 10:20:25;;;;;;;5.10;4.60;;;;;;;23.07;32.99;99690.59;5129875;27;42850;-78
2023/10/16 10:22:59;;;;;;;5.57;5.03;;;;;;;22.51;33.62;99678.19;5130063;27;42095;-78
2023/10/16 10:25:35;;;;;;;5.20;4.70;;;;;;;23.08;33.28;99676.09;5128351;27;40997;-78
2023/10/16 10:28:22;;;;;;;4.83;4.23;;;;;;;23.86;32.05;99674.31;5131501;27;40830;-77
2023/10/16 10:51:13;;;;;;;4.60;4.20;;;;;;;30.82;24.17;99686.97;5111251;27;39911;-79
2023/10/16 10:53:53;;;;;;;4.40;3.77;;;;;;;31.23;23.83;99686.03;5128308;27;41774;-80
2023/10/16 10:56:21;;;;;;;3.70;3.40;;;;;;;30.74;24.41;99676.22;5113196;27;43619;-79
2023/10/16 10:58:50;;;;;;;5.07;4.20;;;;;;;30.58;23.20;99682.91;5152135;27;42284;-78
2023/10/16 11:01:26;;;;;;;3.80;3.40;;;;;;;31.04;23.00;99677.53;5133602;27;40767;-78
2023/10/16 11:03:55;;;;;;;4.30;3.90;;;;;;;31.66;23.00;99670.06;5133997;27;41377;-80
2023/10/16 11:06:48;;;;;;;3.90;3.50;;;;;;;31.30;23.04;99665.81;5133008;27;43717;-78
2023/10/16 11:09:20;;;;;;;3.67;3.37;;;;;;;30.41;22.84;99659.69;5129182;27;42848;-82
2023/10/16 11:11:50;;;;;;;3.77;3.47;;;;;;;29.73;24.21;99644.13;5128597;27;40080;-80
2023/10/16 11:14:33;;;;;;;3.43;3.13;;;;;;;29.04;25.19;99612.09;5106154;27;42700;-77
2023/10/16 11:17:01;;;;;;;4.43;3.37;;;;;;;28.99;25.55;99622.72;5096229;27;43403;-77
2023/10/16 11:19:29;;;;;;;3.23;2.93;;;;;;;29.54;24.01;99630.16;5130797;27;42256;-83
2023/10/16 11:22:00;;;;;;;3.60;2.90;;;;;;;30.71;23.46;99627.41;5096664;27;38872;-81
2023/10/16 11:24:27;;;;;;;4.70;2.90;;;;;;;32.12;21.54;99628.88;5096919;27;42442;-82
2023/10/16 11:26:57;;;;;;;1.98;1.77;;;;;;;33.49;20.38;99639.28;5100711;27;41855;-79
2023/10/16 11:29:33;;;;;;;2.80;2.10;;;;;;;34.96;19.39;99635.47;5095628;28;41580;-81
2023/10/16 11:32:06;;;;;;;3.22;2.20;;;;;;;36.19;16.90;99659.44;5094315;28;38599;-83
2023/10/16 11:34:43;;;;;;;4.70;1.80;;;;;;;36.65;16.26;99648.28;5131741;27;42553;-80
2023/10/16 11:37:13;;;;;;;2.80;2.03;;;;;;;37.01;17.38;99624.13;5117457;27;43073;-79
2023/10/16 11:39:41;;;;;;;2.40;2.20;;;;;;;37.42;15.58;99641.41;5113761;27;42283;-83
2023/10/16 11:42:13;;;;;;;2.95;1.92;;;;;;;37.61;16.69;99604.94;5131798;27;40147;-82
2023/10/16 11:44:40;;;;;;;2.28;1.77;;;;;;;38.43;16.24;99610.56;5111646;27;40923;-84
2023/10/16 11:47:08;;;;;;;2.70;2.15;;;;;;;39.01;15.99;99602.59;5131538;27;43943;-84
2023/10/16 11:49:37;;;;;;;2.00;1.80;;;;;;;39.08;15.69;99608.75;5111682;27;42333;-79
2023/10/16 11:52:19;;;;;;;2.58;1.70;;;;;;;38.68;15.35;99604.50;5095608;27;40419;-83
2023/10/16 11:54:50;;;;;;;2.45;2.25;;;;;;;38.01;16.45;99549.41;5111854;27;41528;-80
2023/10/16 11:57:17;;;;;;;2.38;1.83;;;;;;;38.47;16.30;99550.78;5112217;27;42264;-78
2023/10/16 11:59:45;;;;;;;2.45;2.05;;;;;;;39.52;14.80;99580.88;5094974;27;41494;-81
2023/10/16 12:02:14;;;;;;;3.30;2.17;;;;;;;40.19;14.79;99587.34;5095225;27;40344;-82
2023/10/16 12:04:42;;;;;;;3.28;1.60;;;;;;;40.75;14.09;99584.78;5113476;27;40811;-86
2023/10/16 12:07:12;;;;;;;1.63;1.52;;;;;;;41.13;13.77;99586.22;5115980;27;41901;-83
2023/10/16 12:09:42;;;;;;;1.50;1.40;;;;;;;41.21;13.32;99554.25;5098378;27;41933;-79
2023/10/16 12:12:19;;;;;;;1.45;1.35;;;;;;;41.82;12.91;99587.53;5135139;27;40282;-84
2023/10/16 12:14:48;;;;;;;2.10;1.73;;;;;;;41.80;12.67;99576.69;5116803;27;41397;-88
2023/10/16 12:17:15;;;;;;;2.25;1.70;;;;;;;41.77;13.20;99570.88;5117132;27;42760;-84
2023/10/16 12:19:45;;;;;;;3.05;1.65;;;;;;;41.81;12.62;99581.13;5116737;27;42276;-84
2023/10/16 12:22:15;;;;;;;1.67;1.58;;;;;;;41.82;12.89;99570.81;5151538;27;41267;-79
2023/10/16 12:24:43;;;;;;;1.13;1.02;;;;;;;41.84;12.74;99563.03;5116272;27;42755;-80
2023/10/16 12:27:15;;;;;;;1.30;1.10;;;;;;;41.48;12.83;99560.31;5115933;27;43517;-84
2023/10/16 12:29:44;;;;;;;2.33;1.15;;;;;;;40.64;12.59;99563.63;5113816;27;42285;-78
2023/10/16 12:32:12;;;;;;;1.85;1.08;;;;;;;40.36;13.23;99553.00;5098614;27;38785;-77
2023/10/16 12:34:41;;;;;;;1.23;1.10;;;;;;;40.33;13.19;99548.00;5132235;27;41839;-81
2023/10/16 12:37:08;;;;;;;1.10;1.00;;;;;;;40.08;13.18;99541.22;5098982;27;41807;-85
2023/10/16 12:39:45;;;;;;;1.70;1.10;;;;;;;39.42;13.75;99531.75;5115251;27;42103;-82
2023/10/16 12:42:14;;;;;;;2.88;1.30;;;;;;;37.28;14.93;99525.69;5098476;27;40191;-79
2023/10/16 12:44:41;;;;;;;1.17;1.08;;;;;;;36.33;15.87;99514.66;5114499;27;43048;-81
2023/10/16 12:47:11;;;;;;;1.77;1.38;;;;;;;36.34;15.25;99517.16;5133876;27;43398;-78
2023/10/16 12:49:38;;;;;;;1.38;1.27;;;;;;;36.34;15.53;99511.66;5114784;27;42430;-78
2023/10/16 12:52:07;;;;;;;3.80;1.10;;;;;;;36.43;15.25;99508.47;5098474;27;38883;-79
2023/10/16 12:54:34;;;;;;;1.40;1.13;;;;;;;35.91;15.14;99512.13;5131974;27;42090;-77
2023/10/16 12:57:02;;;;;;;2.13;1.33;;;;;;;35.56;15.27;99503.91;5114037;27;45034;-76
2023/10/16 12:59:31;;;;;;;1.52;1.33;;;;;;;35.62;15.37;99493.81;5114921;27;42247;-82
2023/10/16 13:01:59;;;;;;;2.97;1.45;;;;;;;35.11;15.25;99495.44;5097435;27;39168;-76
2023/10/16 13:04:28;;;;;;;3.30;1.43;;;;;;;34.38;15.85;99489.41;5097104;27;42096;-81
2023/10/16 13:06:56;;;;;;;2.30;1.83;;;;;;;33.27;16.71;99478.72;5097536;27;41980;-79
2023/10/16 13:09:23;;;;;;;2.20;1.40;;;;;;;33.06;17.28;99479.97;5114317;27;42640;-76
2023/10/16 13:11:51;;;;;;;1.97;1.70;;;;;;;32.95;17.88;99473.31;5114020;27;40367;-76
2023/10/16 13:14:18;;;;;;;1.83;1.30;;;;;;;32.98;17.71;99474.78;5134045;27;41374;-79
2023/10/16 13:16:53;;;;;;;1.87;1.30;;;;;;;33.29;17.69;99463.72;5098380;27;43923;-82
2023/10/16 13:19:20;;;;;;;2.33;1.83;;;;;;;33.35;17.47;99467.47;5115234;27;42523;-82
2023/10/16 13:21:51;;;;;;;2.37;1.70;;;;;;;33.22;17.22;99468.41;5133674;27;40196;-77
2023/10/16 13:24:21;;;;;;;2.73;1.70;;;;;;;32.78;17.73;99450.25;5113516;27;40319;-80
2023/10/16 13:26:50;;;;;;;1.97;1.30;;;;;;;32.83;16.85;99465.00;5114191;27;43015;-80
2023/10/16 13:29:18;;;;;;;2.13;1.37;;;;;;;32.58;17.07;99457.78;5131734;27;43266;-80
2023/10/16 13:31:47;;;;;;;1.77;1.10;;;;;;;32.64;17.04;99460.47;5132653;27;40511;-82
2023/10/16 13:34:15;;;;;;;1.30;1.10;;;;;;;32.40;16.98;99459.38;5114483;27;40835;-80
2023/10/16 13:36:56;;;;;;;1.70;1.10;;;;;;;32.08;17.56;99460.44;5114289;27;43421;-81
2023/10/16 13:39:24;;;;;;;3.20;1.50;;;;;;;31.93;17.93;99451.66;5114429;27;42295;-77
2023/10/16 13:41:52;;;;;;;1.40;1.20;;;;;;;31.79;18.16;99448.16;5091573;27;39177;-80
2023/10/16 13:44:21;;;;;;;2.70;1.20;;;;;;;31.19;17.97;99414.66;5113646;27;40811;-78
2023/10/16 13:46:51;;;;;;;2.90;1.47;;;;;;;31.11;18.46;99445.00;5096971;27;41668;-82
2023/10/16 13:49:19;;;;;;;2.20;1.43;;;;;;;30.72;18.46;99437.66;5096690;27;41944;-80
2023/10/16 13:51:48;;;;;;;2.07;1.07;;;;;;;30.26;18.72;99438.47;5133040;27;40912;-80
2023/10/16 13:54:16;;;;;;;2.47;1.20;;;;;;;29.80;18.52;99442.94;5114024;27;41606;-81
2023/10/16 13:56:46;;;;;;;1.27;0.93;;;;;;;29.18;19.46;99422.06;5113381;27;41608;-77
2023/10/16 13:59:13;;;;;;;1.20;0.80;;;;;;;29.11;19.80;99415.72;5096088;27;41290;-77
2023/10/16 14:01:43;;;;;;;1.17;0.73;;;;;;;29.34;19.38;99421.72;5132511;27;40388;-82
2023/10/16 14:04:14;;;;;;;1.43;1.10;;;;;;;29.46;19.92;99425.59;5123822;27;42455;-79
2023/10/16 14:06:41;;;;;;;1.57;0.80;;;;;;;29.57;19.57;99427.72;5128914;27;43127;-80
2023/10/16 14:09:18;;;;;;;2.20;0.90;;;;;;;29.38;19.21;99428.50;5113349;27;41054;-78
2023/10/16 14:11:50;;;;;;;2.87;1.30;;;;;;;28.98;19.69;99411.03;5128303;27;41215;-80
2023/10/16 14:14:24;;;;;;;2.77;1.30;;;;;;;28.61;20.66;99417.66;5097882;27;40359;-81
2023/10/16 14:16:53;;;;;;;1.97;1.20;;;;;;;27.59;21.14;99397.16;5114895;27;42822;-83
2023/10/16 14:19:26;;;;;;;2.93;1.20;;;;;;;26.72;22.30;99403.25;5114061;27;41282;-79
2023/10/16 14:21:55;;;;;;;1.77;1.10;;;;;;;25.78;23.04;99390.13;5111705;27;40717;-80
2023/10/16 14:24:24;;;;;;;2.93;1.00;;;;;;;25.06;24.03;99384.06;5129515;27;42921;-75
2023/10/16 14:26:54;;;;;;;1.40;0.90;;;;;;;24.24;24.21;99368.97;5131224;27;42717;-80
2023/10/16 14:29:22;;;;;;;2.80;1.00;;;;;;;23.36;25.37;99332.69;5145616;27;42722;-78
2023/10/16 14:31:51;;;;;;;2.03;1.07;;;;;;;22.91;26.51;99360.88;5137150;27;39398;-77
2023/10/16 14:34:21;;;;;;;2.23;1.10;;;;;;;22.27;27.21;99353.22;5124998;27;41973;-76
2023/10/16 14:36:51;;;;;;;2.03;1.40;;;;;;;21.77;27.85;99353.81;5098702;27;41504;-81
2023/10/16 14:39:20;;;;;;;1.07;0.90;;;;;;;21.19;28.14;99348.84;5133817;27;44793;-78
2023/10/16 14:41:47;;;;;;;2.50;1.33;;;;;;;20.72;28.48;99350.75;5098972;27;40636;-81
2023/10/16 14:44:15;;;;;;;1.53;1.00;;;;;;;20.19;29.09;99324.41;5137284;27;42324;-79
2023/10/16 14:46:43;;;;;;;1.77;0.93;;;;;;;19.96;29.38;99341.88;5100182;27;43405;-81
2023/10/16 14:49:10;;;;;;;1.33;0.83;;;;;;;19.62;29.68;99345.00;5125358;27;42535;-78
2023/10/16 14:51:39;;;;;;;1.73;1.33;;;;;;;19.30;30.79;99339.00;5098573;27;38932;-79
2023/10/16 14:54:11;;;;;;;1.97;0.93;;;;;;;19.00;32.18;99335.41;5131260;27;41727;-78
2023/10/16 14:56:39;;;;;;;1.60;1.23;;;;;;;18.61;32.06;99331.75;5112794;27;42139;-76
2023/10/16 14:59:09;;;;;;;1.33;1.07;;;;;;;18.35;32.58;99326.94;5113010;27;42358;-78
2023/10/16 15:01:37;;;;;;;2.00;1.00;;;;;;;18.05;33.04;99325.91;5131757;27;42050;-79
2023/10/16 15:04:05;;;;;;;2.13;0.93;;;;;;;17.78;33.67;99331.81;5095890;27;42045;-79
2023/10/16 15:06:33;;;;;;;1.33;1.07;;;;;;;17.52;33.56;99323.25;5113175;27;44069;-80
2023/10/16 15:09:09;;;;;;;2.03;0.97;;;;;;;17.26;34.28;99321.03;5095576;27;40979;-79
2023/10/16 15:11:40;;;;;;;1.90;1.10;;;;;;;16.86;34.12;99295.72;5079138;27;40537;-78
2023/10/16 15:14:08;;;;;;;1.50;0.80;;;;;;;16.80;34.81;99322.97;5112550;27;41703;-76
2023/10/16 15:16:36;;;;;;;1.70;0.90;;;;;;;16.66;35.39;99325.06;5131296;27;44175;-83
2023/10/16 15:19:07;;;;;;;1.30;0.70;;;;;;;16.48;35.63;99321.97;5132156;27;42860;-80
2023/10/16 15:21:35;;;;;;;1.80;0.90;;;;;;;16.23;36.12;99303.50;5108287;27;39443;-78
2023/10/16 15:24:04;;;;;;;2.13;0.93;;;;;;;16.17;36.38;99312.84;5132844;27;41791;-77
2023/10/16 15:26:32;;;;;;;1.33;0.80;;;;;;;16.02;36.54;99304.22;5116953;27;41689;-80
2023/10/16 15:29:01;;;;;;;0.77;0.73;;;;;;;15.77;36.77;99288.38;5134145;27;42616;-79
2023/10/16 15:31:29;;;;;;;1.17;1.07;;;;;;;15.55;37.24;99272.31;5116861;27;38923;-80
2023/10/16 15:33:56;;;;;;;1.50;1.00;;;;;;;15.19;37.72;99223.38;5151865;27;42220;-83
2023/10/16 15:36:25;;;;;;;2.97;1.03;;;;;;;15.46;38.19;99289.81;5152608;27;43818;-80
2023/10/16 15:38:52;;;;;;;3.67;1.10;;;;;;;15.21;38.16;99277.47;5116776;27;42164;-83
2023/10/16 15:41:22;;;;;;;1.40;1.10;;;;;;;14.92;39.98;99241.44;5108216;27;38939;-81
2023/10/16 15:43:50;;;;;;;2.97;1.40;;;;;;;14.99;39.88;99280.03;5115841;27;41906;-80
2023/10/16 15:46:27;;;;;;;2.97;1.20;;;;;;;14.87;40.12;99280.94;5108656;27;41828;-80
2023/10/16 15:48:55;;;;;;;2.90;1.43;;;;;;;14.71;39.77;99284.72;5153814;27;43167;-85
2023/10/16 15:51:23;;;;;;;2.43;1.57;;;;;;;14.43;40.52;99271.69;5136850;27;39104;-80
2023/10/16 15:53:52;;;;;;;1.27;1.00;;;;;;;14.39;40.91;99278.16;5136348;27;43717;-82
2023/10/16 15:56:21;;;;;;;1.57;1.23;;;;;;;14.28;41.24;99278.06;5112410;27;44260;-77
2023/10/16 15:58:50;;;;;;;2.70;1.30;;;;;;;14.16;40.92;99277.13;5133369;27;42700;-81
2023/10/16 16:01:19;;;;;;;3.27;1.20;;;;;;;14.08;41.25;99275.97;5115876;27;38857;-81
2023/10/16 16:03:47;;;;;;;1.83;0.80;;;;;;;13.94;40.99;99275.13;5115862;27;43245;-79
2023/10/16 16:06:14;;;;;;;1.30;1.10;;;;;;;13.83;42.73;99280.34;5134528;27;44031;-80
2023/10/16 16:08:40;;;;;;;1.70;0.90;;;;;;;13.71;41.82;99278.53;5115619;27;41404;-80
2023/10/16 16:11:13;;;;;;;1.33;1.00;;;;;;;13.56;43.20;99271.59;5134781;27;40144;-81
2023/10/16 16:13:41;;;;;;;1.23;0.97;;;;;;;13.34;43.18;99263.34;5117043;27;42115;-80
2023/10/16 16:16:09;;;;;;;2.60;0.87;;;;;;;13.17;43.56;99257.34;5117199;27;43099;-83
2023/10/16 16:18:39;;;;;;;3.47;1.17;;;;;;;13.18;43.71;99280.31;5116728;27;42373;-81
2023/10/16 16:21:10;;;;;;;1.33;0.80;;;;;;;13.05;44.03;99282.06;5117225;27;39922;-86
2023/10/16 16:23:38;;;;;;;2.10;0.90;;;;;;;12.93;43.92;99280.19;5108856;27;42067;-75
2023/10/16 16:26:05;;;;;;;2.10;1.00;;;;;;;12.83;44.85;99276.44;5114267;27;41778;-74
2023/10/16 16:28:33;;;;;;;1.90;1.00;;;;;;;12.70;44.13;99284.34;5131443;27;42989;-75
2023/10/16 16:31:02;;;;;;;1.43;0.80;;;;;;;12.61;44.41;99287.56;5133075;27;40549;-75
2023/10/16 16:33:29;;;;;;;3.27;1.10;;;;;;;12.49;44.22;99283.91;5114054;27;40120;-74
2023/10/16 16:35:58;;;;;;;1.10;1.00;;;;;;;12.44;44.23;99293.13;5132633;27;42707;-75
2023/10/16 16:38:26;;;;;;;1.57;1.00;;;;;;;12.33;44.70;99290.28;5115035;27;42332;-75
2023/10/16 16:40:54;;;;;;;1.73;0.70;;;;;;;12.27;44.56;99291.53;5133539;27;40283;-75
2023/10/16 16:43:21;;;;;;;2.90;0.93;;;;;;;12.20;44.34;99295.53;5098162;27;40665;-74
2023/10/16 16:45:50;;;;;;;1.17;0.80;;;;;;;12.06;44.82;99284.91;5133839;27;42821;-75
2023/10/16 16:48:17;;;;;;;0.60;0.53;;;;;;;12.01;44.71;99290.47;5098109;27;41340;-75
2023/10/16 16:50:45;;;;;;;1.47;0.70;;;;;;;11.93;45.55;99291.91;5114647;27;38967;-75
2023/10/16 16:53:14;;;;;;;2.40;1.00;;;;;;;11.81;45.80;99283.75;5114849;27;40880;-75
2023/10/16 16:55:42;;;;;;;3.33;1.00;;;;;;;11.72;45.49;99286.94;5115071;27;42816;-75
2023/10/16 16:58:10;;;;;;;2.50;1.10;;;;;;;11.56;45.77;99266.72;5133754;27;41812;-75
2023/10/16 17:00:38;;;;;;;3.63;1.23;;;;;;;11.57;45.76;99284.34;5133657;27;39985;-75
2023/10/16 17:03:05;;;;;;;2.77;1.40;;;;;;;11.48;46.85;99280.44;5131973;27;41456;-75
2023/10/16 17:05:34;;;;;;;1.83;1.17;;;;;;;11.27;46.96;99266.63;5133457;27;43592;-75
2023/10/16 17:08:02;;;;;;;2.77;1.23;;;;;;;11.32;47.13;99280.47;5114858;27;43222;-75
2023/10/16 17:10:31;;;;;;;3.50;1.80;;;;;;;11.26;48.21;99274.66;5115180;27;40866;-75
2023/10/16 17:12:59;;;;;;;4.00;1.77;;;;;;;11.19;48.29;99278.63;5098207;27;41843;-75
2023/10/16 17:15:26;;;;;;;4.60;1.50;;;;;;;11.12;49.20;99284.31;5115700;27;44192;-75
2023/10/16 17:17:56;;;;;;;2.10;1.50;;;;;;;11.06;48.59;99284.66;5115634;27;41478;-75
2023/10/16 17:20:25;;;;;;;1.70;1.13;;;;;;;11.00;48.76;99290.28;5134290;27;40645;-75
2023/10/16 17:22:53;;;;;;;1.53;1.10;;;;;;;10.95;48.28;99296.81;5115532;27;40778;-75
2023/10/16 17:25:21;;;;;;;2.53;1.47;;;;;;;10.81;48.79;99284.34;5115707;27;41897;-76
2023/10/16 17:27:51;;;;;;;2.50;1.20;;;;;;;10.75;49.64;99287.34;5115414;27;42918;-74
2023/10/16 17:30:19;;;;;;;2.33;1.50;;;;;;;10.69;48.94;99298.28;5134112;27;40728;-74
2023/10/16 17:32:49;;;;;;;1.30;1.20;;;;;;;10.66;48.84;99301.94;5115606;27;42195;-75
2023/10/16 17:35:18;;;;;;;2.03;1.40;;;;;;;10.64;48.35;99300.31;5115356;27;43001;-75
2023/10/16 17:37:46;;;;;;;2.53;1.30;;;;;;;10.61;48.66;99303.16;5115349;27;41348;-75
2023/10/16 17:40:15;;;;;;;1.77;1.43;;;;;;;10.56;49.37;99291.94;5115323;27;41157;-74
2023/10/16 17:42:44;;;;;;;2.73;1.67;;;;;;;10.51;49.16;99291.38;5113425;27;40875;-75